createdAt,value
2022-12-13T00:00:44.689Z,87.09
2022-12-13T00:03:15.935Z,86.74
2022-12-13T00:05:47.183Z,86.80
2022-12-13T00:08:18.525Z,87.18
2022-12-13T00:11:02.686Z,86.92
2022-12-13T00:13:34.300Z,87.27
2022-12-13T00:16:08.389Z,86.90
2022-12-13T00:18:39.999Z,86.85
2022-12-13T00:21:14.790Z,87.06
2022-12-13T00:23:47.199Z,86.91
2022-12-13T00:26:24.635Z,86.88
2022-12-13T00:28:58.415Z,87.18
2022-12-13T00:34:23.474Z,86.96
2022-12-13T00:36:55.308Z,86.83
2022-12-13T00:39:26.794Z,86.98
2022-12-13T00:41:58.157Z,86.68
2022-12-13T00:44:29.472Z,86.47
2022-12-13T00:47:00.779Z,86.85
2022-12-13T00:49:32.049Z,86.51
2022-12-13T00:52:03.441Z,86.75
2022-12-13T00:54:34.864Z,85.91
2022-12-13T00:57:06.131Z,86.87
2022-12-13T00:59:37.387Z,86.66
2022-12-13T01:02:08.640Z,86.91
2022-12-13T01:04:40.040Z,86.75
2022-12-13T01:07:11.295Z,86.34
2022-12-13T01:09:42.627Z,87.01
2022-12-13T01:12:13.881Z,86.86
2022-12-13T01:14:45.136Z,87.07
2022-12-13T01:17:16.416Z,87.25
2022-12-13T01:19:47.715Z,86.72
2022-12-13T01:22:19.038Z,87.03
2022-12-13T01:24:50.326Z,86.88
2022-12-13T01:27:21.616Z,86.84
2022-12-13T01:29:52.864Z,86.72
2022-12-13T01:32:24.285Z,87.00
2022-12-13T01:34:55.596Z,87.23
2022-12-13T01:37:26.901Z,87.39
2022-12-13T01:39:58.611Z,87.11
2022-12-13T01:42:30.108Z,86.95
2022-12-13T01:45:12.106Z,87.18
2022-12-13T01:47:50.851Z,86.81
2022-12-13T01:50:26.644Z,87.43
2022-12-13T01:53:00.232Z,86.90
2022-12-13T01:55:41.320Z,86.92
2022-12-13T01:58:14.888Z,86.82
2022-12-13T02:00:47.625Z,86.68
2022-12-13T02:03:22.019Z,86.82
2022-12-13T02:06:12.873Z,87.04
2022-12-13T02:08:45.647Z,86.79
2022-12-13T02:11:17.028Z,86.91
2022-12-13T02:13:48.323Z,86.70
2022-12-13T02:16:45.540Z,86.51
2022-12-13T02:19:38.376Z,86.71
2022-12-13T02:22:56.989Z,86.67
2022-12-13T02:25:45.578Z,86.64
2022-12-13T02:28:38.959Z,86.88
2022-12-13T02:31:18.106Z,86.33
2022-12-13T02:33:56.667Z,86.74
2022-12-13T02:36:38.543Z,86.41
2022-12-13T02:39:30.332Z,86.29
2022-12-13T02:42:21.973Z,86.31
2022-12-13T02:45:17.174Z,86.47
2022-12-13T02:47:55.653Z,86.54
2022-12-13T02:50:27.596Z,86.52
2022-12-13T02:53:00.855Z,86.28
2022-12-13T02:56:13.528Z,86.45
2022-12-13T02:58:48.992Z,86.73
2022-12-13T03:01:40.370Z,86.90
2022-12-13T03:05:00.015Z,87.04
2022-12-13T03:07:49.622Z,86.99
2022-12-13T03:10:31.337Z,87.45
2022-12-13T03:13:27.287Z,87.56
2022-12-13T03:16:07.803Z,87.68
2022-12-13T03:18:40.637Z,87.82
2022-12-13T03:21:12.184Z,87.91
2022-12-13T03:23:43.449Z,88.65
2022-12-13T03:26:18.719Z,88.27
2022-12-13T03:28:51.215Z,88.15
2022-12-13T03:31:22.549Z,89.14
2022-12-13T03:33:53.932Z,88.55
2022-12-13T03:36:25.606Z,88.43
2022-12-13T03:38:57.133Z,88.77
2022-12-13T03:41:32.727Z,88.73
2022-12-13T03:44:05.912Z,89.39
2022-12-13T03:46:37.208Z,89.47
2022-12-13T03:49:11.373Z,89.62
2022-12-13T03:51:46.623Z,89.02
2022-12-13T03:54:17.946Z,89.40
2022-12-13T03:56:49.190Z,89.03
2022-12-13T03:59:20.684Z,89.51
2022-12-13T04:01:52.070Z,89.42
2022-12-13T04:04:23.394Z,89.32
2022-12-13T04:06:54.628Z,89.00
2022-12-13T04:09:25.911Z,89.41
2022-12-13T04:12:15.818Z,88.93
2022-12-13T04:14:47.074Z,89.43
2022-12-13T04:17:18.312Z,88.99
2022-12-13T04:19:49.585Z,89.15
2022-12-13T04:22:24.852Z,89.18
2022-12-13T04:24:56.335Z,89.34
2022-12-13T04:27:27.579Z,88.99
2022-12-13T04:29:58.963Z,89.46
2022-12-13T04:32:30.281Z,89.49
2022-12-13T04:35:01.831Z,89.95
2022-12-13T04:37:33.191Z,90.01
2022-12-13T04:40:05.143Z,89.82
2022-12-13T04:42:36.547Z,90.47
2022-12-13T04:45:09.194Z,90.40
2022-12-13T04:47:40.443Z,90.12
2022-12-13T04:50:13.512Z,89.85
2022-12-13T04:52:44.858Z,89.95
2022-12-13T04:55:16.515Z,90.33
2022-12-13T04:57:48.146Z,90.16
2022-12-13T05:00:21.946Z,90.08
2022-12-13T05:02:53.310Z,90.57
2022-12-13T05:05:24.819Z,90.38
2022-12-13T05:07:56.094Z,90.01
2022-12-13T05:10:34.245Z,90.18
2022-12-13T05:13:09.073Z,90.32
2022-12-13T05:15:40.391Z,90.40
2022-12-13T05:18:11.692Z,90.08
2022-12-13T05:20:42.999Z,90.49
2022-12-13T05:23:14.297Z,90.40
2022-12-13T05:25:54.102Z,90.56
2022-12-13T05:28:28.940Z,90.87
2022-12-13T05:31:23.150Z,90.82
2022-12-13T05:34:01.427Z,90.98
2022-12-13T05:36:33.028Z,90.99
2022-12-13T05:39:04.292Z,91.36
2022-12-13T05:41:36.936Z,90.85
2022-12-13T05:44:10.295Z,90.91
2022-12-13T05:46:41.847Z,91.22
2022-12-13T05:49:13.091Z,90.74
2022-12-13T05:51:44.430Z,90.65
2022-12-13T05:54:15.839Z,90.02
2022-12-13T05:56:47.180Z,89.85
2022-12-13T05:59:18.776Z,90.12
2022-12-13T06:01:50.115Z,90.24
2022-12-13T06:04:22.652Z,89.89
2022-12-13T06:06:54.923Z,90.13
2022-12-13T06:09:26.219Z,90.57
2022-12-13T06:12:00.995Z,90.39
2022-12-13T06:14:32.692Z,91.25
2022-12-13T06:17:04.584Z,90.78
2022-12-13T06:19:35.840Z,90.67
2022-12-13T06:22:07.194Z,90.63
2022-12-13T06:24:38.812Z,91.26
2022-12-13T06:27:10.335Z,91.61
2022-12-13T06:29:42.054Z,90.90
2022-12-13T06:32:13.734Z,91.14
2022-12-13T06:34:44.976Z,90.72
2022-12-13T06:37:16.279Z,90.97
2022-12-13T06:39:48.151Z,91.00
2022-12-13T06:42:22.239Z,90.58
2022-12-13T06:44:56.176Z,90.89
2022-12-13T06:47:32.152Z,90.14
2022-12-13T06:50:05.560Z,90.49
2022-12-13T06:52:38.036Z,90.19
2022-12-13T06:55:09.682Z,90.00
2022-12-13T06:57:41.435Z,89.94
2022-12-13T07:00:13.573Z,89.46
2022-12-13T07:02:44.947Z,89.87
2022-12-13T07:05:16.265Z,89.76
2022-12-13T07:07:47.694Z,89.74
2022-12-13T07:10:22.927Z,89.70
2022-12-13T07:12:54.360Z,89.48
2022-12-13T07:15:25.614Z,89.67
2022-12-13T07:17:56.877Z,89.48
2022-12-13T07:20:28.196Z,89.41
2022-12-13T07:22:59.526Z,89.10
2022-12-13T07:25:30.772Z,88.57
2022-12-13T07:28:05.277Z,88.92
2022-12-13T07:30:40.482Z,88.92
2022-12-13T07:33:13.939Z,88.72
2022-12-13T07:36:00.549Z,88.70
2022-12-13T07:38:31.805Z,88.59
2022-12-13T07:41:04.044Z,88.69
2022-12-13T07:43:35.960Z,88.57
2022-12-13T07:46:08.117Z,88.20
2022-12-13T07:48:39.404Z,88.65
2022-12-13T07:51:14.844Z,88.81
2022-12-13T07:53:46.107Z,88.22
2022-12-13T07:56:17.369Z,88.74
2022-12-13T07:58:48.713Z,88.66
2022-12-13T08:01:20.054Z,88.15
2022-12-13T08:03:51.380Z,88.28
2022-12-13T08:06:22.682Z,88.90
2022-12-13T08:08:57.628Z,87.98
2022-12-13T08:11:28.920Z,88.11
2022-12-13T08:14:00.532Z,88.93
2022-12-13T08:16:31.981Z,88.22
2022-12-13T08:19:04.723Z,87.98
2022-12-13T08:21:55.816Z,88.79
2022-12-13T08:24:30.003Z,88.51
2022-12-13T08:27:03.189Z,88.14
2022-12-13T08:29:36.172Z,88.70
2022-12-13T08:32:10.109Z,88.24
2022-12-13T08:34:42.157Z,88.25
2022-12-13T08:37:13.653Z,88.53
2022-12-13T08:39:44.990Z,88.37
2022-12-13T08:42:20.087Z,88.15
2022-12-13T08:44:53.272Z,88.44
2022-12-13T08:47:26.849Z,88.53
2022-12-13T08:50:02.961Z,88.80
2022-12-13T08:52:40.368Z,88.55
2022-12-13T08:55:14.670Z,88.36
2022-12-13T08:57:46.063Z,88.85
2022-12-13T09:00:19.778Z,88.46
2022-12-13T09:02:51.279Z,88.45
2022-12-13T09:05:34.249Z,89.50
2022-12-13T09:08:24.080Z,88.86
2022-12-13T09:10:59.417Z,89.42
2022-12-13T09:13:33.191Z,89.04
2022-12-13T09:16:14.330Z,89.89
2022-12-13T09:18:56.082Z,89.42
2022-12-13T09:21:31.769Z,89.46
2022-12-13T09:24:03.598Z,89.86
2022-12-13T09:26:38.314Z,90.14
2022-12-13T09:29:11.717Z,89.91
2022-12-13T09:31:47.103Z,90.38
2022-12-13T09:34:24.033Z,89.95
2022-12-13T09:36:55.305Z,89.94
2022-12-13T09:39:33.029Z,90.43
2022-12-13T09:42:10.587Z,90.88
2022-12-13T09:45:03.247Z,90.99
2022-12-13T09:47:47.473Z,90.75
2022-12-13T09:50:27.082Z,90.61
2022-12-13T09:53:01.161Z,91.01
2022-12-13T09:55:44.108Z,90.92
2022-12-13T09:58:21.514Z,91.44
2022-12-13T10:00:55.551Z,91.05
2022-12-13T10:03:26.915Z,91.12
2022-12-13T10:06:00.623Z,91.58
2022-12-13T10:08:57.521Z,91.72
2022-12-13T10:11:31.819Z,91.76
2022-12-13T10:14:16.174Z,91.71
2022-12-13T10:16:51.893Z,91.38
2022-12-13T10:19:30.206Z,91.78
2022-12-13T10:22:04.596Z,92.28
2022-12-13T10:24:52.812Z,92.22
2022-12-13T10:27:29.312Z,91.94
2022-12-13T10:30:06.458Z,92.11
2022-12-13T10:32:54.914Z,92.36
2022-12-13T10:35:29.197Z,92.26
2022-12-13T10:38:03.258Z,92.06
2022-12-13T10:40:48.814Z,92.06
2022-12-13T10:43:26.267Z,92.40
2022-12-13T10:45:59.798Z,92.49
2022-12-13T10:48:39.405Z,92.59
2022-12-13T10:51:17.839Z,92.12
2022-12-13T10:53:58.813Z,92.79
2022-12-13T10:56:37.107Z,92.43
2022-12-13T10:59:16.992Z,93.01
2022-12-13T11:01:48.771Z,93.18
2022-12-13T11:04:31.491Z,93.73
2022-12-13T11:07:22.915Z,92.79
2022-12-13T11:09:54.205Z,92.96
2022-12-13T11:12:27.196Z,93.48
2022-12-13T11:15:07.628Z,94.31
2022-12-13T11:17:49.679Z,94.50
2022-12-13T11:20:27.174Z,94.58
2022-12-13T11:23:04.606Z,94.53
2022-12-13T11:25:40.744Z,93.76
2022-12-13T11:28:37.602Z,94.41
2022-12-13T11:31:19.079Z,94.85
2022-12-13T11:34:11.428Z,94.97
2022-12-13T11:37:06.071Z,94.84
2022-12-13T11:39:43.178Z,95.50
2022-12-13T11:42:38.355Z,94.57
2022-12-13T11:45:25.482Z,94.75
2022-12-13T11:48:09.449Z,94.78
2022-12-13T11:50:46.002Z,94.91
2022-12-13T11:53:46.299Z,95.19
2022-12-13T11:56:31.561Z,94.81
2022-12-13T11:59:19.113Z,95.03
2022-12-13T12:02:04.877Z,95.79
2022-12-13T12:05:05.758Z,95.03
2022-12-13T12:08:05.650Z,95.17
2022-12-13T12:10:50.080Z,95.76
2022-12-13T12:13:29.040Z,95.24
2022-12-13T12:16:13.334Z,96.03
2022-12-13T12:18:44.793Z,95.75
2022-12-13T12:22:05.074Z,95.67
2022-12-13T12:24:48.076Z,95.36
2022-12-13T12:27:50.158Z,96.05
2022-12-13T12:30:59.237Z,95.68
2022-12-13T12:33:58.440Z,95.86
2022-12-13T12:36:51.827Z,95.52
2022-12-13T12:39:29.888Z,95.81
2022-12-13T12:42:26.478Z,95.73
2022-12-13T12:45:55.911Z,95.99
2022-12-13T12:49:00.737Z,94.92
2022-12-13T12:51:36.742Z,95.21
2022-12-13T12:54:33.181Z,95.11
2022-12-13T12:57:21.130Z,95.99
2022-12-13T13:00:03.217Z,95.41
2022-12-13T13:02:42.840Z,94.80
2022-12-13T13:05:32.156Z,95.15
2022-12-13T13:08:15.729Z,94.82
2022-12-13T13:10:49.770Z,95.05
2022-12-13T13:13:35.475Z,94.20
2022-12-13T13:16:27.014Z,95.23
2022-12-13T13:19:00.579Z,95.25
2022-12-13T13:21:33.669Z,94.54
2022-12-13T13:24:07.072Z,94.87
2022-12-13T13:26:44.539Z,95.07
2022-12-13T13:29:27.343Z,93.82
2022-12-13T13:32:11.755Z,94.86
2022-12-13T13:34:45.621Z,93.92
2022-12-13T13:37:25.688Z,94.34
2022-12-13T13:40:00.523Z,93.62
2022-12-13T13:42:32.867Z,93.73
2022-12-13T13:45:24.713Z,94.33
2022-12-13T13:48:14.651Z,94.42
2022-12-13T13:51:12.557Z,94.71
2022-12-13T13:54:25.643Z,94.25
2022-12-13T13:57:33.178Z,93.98
2022-12-13T14:00:41.019Z,94.51
2022-12-13T14:03:58.345Z,94.12
2022-12-13T14:07:01.054Z,93.72
2022-12-13T14:10:07.805Z,93.14
2022-12-13T14:13:21.283Z,94.05
2022-12-13T14:16:37.250Z,93.28
2022-12-13T14:19:20.682Z,93.86
2022-12-13T14:22:08.795Z,92.90
2022-12-13T14:25:23.276Z,93.60
2022-12-13T14:28:01.030Z,93.29
2022-12-13T14:30:33.405Z,93.32
2022-12-13T14:33:04.812Z,92.74
2022-12-13T14:35:36.076Z,93.39
2022-12-13T14:38:22.652Z,92.57
2022-12-13T14:40:58.546Z,92.59
2022-12-13T14:43:34.816Z,92.93
2022-12-13T14:46:07.661Z,92.48
2022-12-13T14:48:49.259Z,92.97
2022-12-13T14:51:30.948Z,91.88
2022-12-13T14:54:04.711Z,92.43
2022-12-13T14:56:53.401Z,92.18
2022-12-13T14:59:25.512Z,92.12
2022-12-13T15:02:00.275Z,92.25
2022-12-13T15:04:34.235Z,92.25
2022-12-13T15:07:25.138Z,91.67
2022-12-13T15:10:00.629Z,91.89
2022-12-13T15:12:32.064Z,91.64
2022-12-13T15:15:08.405Z,91.59
2022-12-13T15:17:40.237Z,91.94
2022-12-13T15:20:31.424Z,91.53
2022-12-13T15:23:18.808Z,91.26
2022-12-13T15:25:57.361Z,91.34
2022-12-13T15:28:33.909Z,90.93
2022-12-13T15:31:06.283Z,91.55
2022-12-13T15:33:48.207Z,91.21
2022-12-13T15:36:27.166Z,91.82
2022-12-13T15:39:01.576Z,91.39
2022-12-13T15:41:42.963Z,91.13
2022-12-13T15:44:26.157Z,91.53
2022-12-13T15:47:28.730Z,90.76
2022-12-13T15:50:05.171Z,91.02
2022-12-13T15:52:38.980Z,91.04
2022-12-13T15:55:10.682Z,91.24
2022-12-13T15:57:54.205Z,90.90
2022-12-13T16:00:31.806Z,91.13
2022-12-13T16:03:11.141Z,91.12
2022-12-13T16:05:49.952Z,90.66
2022-12-13T16:08:37.406Z,91.16
2022-12-13T16:11:09.151Z,90.91
2022-12-13T16:13:47.548Z,90.78
2022-12-13T16:16:29.787Z,90.76
2022-12-13T16:19:01.116Z,90.86
2022-12-13T16:21:32.426Z,90.87
2022-12-13T16:24:03.849Z,90.61
2022-12-13T16:26:35.161Z,91.03
2022-12-13T16:29:11.604Z,90.64
2022-12-13T16:31:44.013Z,90.43
2022-12-13T16:34:18.196Z,90.12
2022-12-13T16:36:49.552Z,90.56
2022-12-13T16:39:21.091Z,90.29
2022-12-13T16:41:53.948Z,90.48
2022-12-13T16:44:35.902Z,90.30
2022-12-13T16:47:18.292Z,90.44
2022-12-13T16:49:51.758Z,90.11
2022-12-13T16:52:23.042Z,90.15
2022-12-13T16:54:54.289Z,90.58
2022-12-13T16:57:25.552Z,89.96
2022-12-13T16:59:56.798Z,89.90
2022-12-13T17:02:28.116Z,89.96
2022-12-13T17:04:59.408Z,90.19
2022-12-13T17:07:30.872Z,89.68
2022-12-13T17:10:02.835Z,89.53
2022-12-13T17:12:34.099Z,89.82
2022-12-13T17:15:06.330Z,89.50
2022-12-13T17:17:38.949Z,89.66
2022-12-13T17:20:13.168Z,89.99
2022-12-13T17:22:45.103Z,89.69
2022-12-13T17:25:16.804Z,89.24
2022-12-13T17:27:48.200Z,89.22
2022-12-13T17:30:19.548Z,89.75
2022-12-13T17:32:50.876Z,89.80
2022-12-13T17:35:22.214Z,89.88
2022-12-13T17:37:54.662Z,89.75
2022-12-13T17:40:26.003Z,90.06
2022-12-13T17:42:57.308Z,89.26
2022-12-13T17:45:28.568Z,89.55
2022-12-13T17:47:59.937Z,89.33
2022-12-13T17:50:31.209Z,89.55
2022-12-13T17:53:02.472Z,89.61
2022-12-13T17:55:33.734Z,89.73
2022-12-13T17:58:05.701Z,90.03
2022-12-13T18:00:37.667Z,89.93
2022-12-13T18:03:08.972Z,90.59
2022-12-13T18:05:40.388Z,90.05
2022-12-13T18:08:11.953Z,90.20
2022-12-13T18:10:43.214Z,89.93
2022-12-13T18:13:14.776Z,89.94
2022-12-13T18:15:46.052Z,90.18
2022-12-13T18:18:17.790Z,89.96
2022-12-13T18:20:49.591Z,90.55
2022-12-13T18:23:21.404Z,90.40
2022-12-13T18:25:59.644Z,89.94
2022-12-13T18:28:30.993Z,90.21
2022-12-13T18:31:04.754Z,90.50
2022-12-13T18:33:36.344Z,90.04
2022-12-13T18:36:08.854Z,90.09
2022-12-13T18:38:42.378Z,90.01
2022-12-13T18:41:20.094Z,90.48
2022-12-13T18:43:59.556Z,89.87
2022-12-13T18:46:34.469Z,90.36
2022-12-13T18:49:06.532Z,90.09
2022-12-13T18:51:37.925Z,89.85
2022-12-13T18:54:09.511Z,90.14
2022-12-13T18:56:40.964Z,89.59
2022-12-13T18:59:12.395Z,89.99
2022-12-13T19:01:44.215Z,90.11
2022-12-13T19:04:15.536Z,90.21
2022-12-13T19:06:46.779Z,90.24
2022-12-13T19:09:18.180Z,90.13
2022-12-13T19:11:49.754Z,89.91
2022-12-13T19:14:25.423Z,89.90
2022-12-13T19:16:58.372Z,89.80
2022-12-13T19:19:29.721Z,90.06
2022-12-13T19:22:00.966Z,90.22
2022-12-13T19:24:32.245Z,90.50
2022-12-13T19:27:03.594Z,90.26
2022-12-13T19:29:34.968Z,90.30
2022-12-13T19:32:06.955Z,89.88
2022-12-13T19:34:38.500Z,89.63
2022-12-13T19:37:10.468Z,89.83
2022-12-13T19:39:41.799Z,90.15
2022-12-13T19:42:13.107Z,89.73
2022-12-13T19:44:44.363Z,90.39
2022-12-13T19:47:16.312Z,90.27
2022-12-13T19:49:47.724Z,89.35
2022-12-13T19:52:19.766Z,89.42
2022-12-13T19:54:51.026Z,89.95
2022-12-13T19:57:22.344Z,89.78
2022-12-13T19:59:53.716Z,89.43
2022-12-13T20:02:25.804Z,89.27
2022-12-13T20:04:57.051Z,89.90
2022-12-13T20:07:28.627Z,89.97
2022-12-13T20:09:59.993Z,89.39
2022-12-13T20:12:37.010Z,89.31
2022-12-13T20:15:11.892Z,89.37
2022-12-13T20:17:43.146Z,89.01
2022-12-13T20:20:14.531Z,89.26
2022-12-13T20:22:46.560Z,89.43
2022-12-13T20:25:19.812Z,89.22
2022-12-13T20:27:51.090Z,89.58
2022-12-13T20:30:22.494Z,89.18
2022-12-13T20:32:54.198Z,89.63
2022-12-13T20:35:25.607Z,89.61
2022-12-13T20:37:56.940Z,89.12
2022-12-13T20:40:28.188Z,89.20
2022-12-13T20:42:59.462Z,89.15
2022-12-13T20:45:32.036Z,89.60
2022-12-13T20:48:03.387Z,89.85
2022-12-13T20:50:34.887Z,88.86
2022-12-13T20:53:06.233Z,89.14
2022-12-13T20:55:38.105Z,89.34
2022-12-13T20:58:10.307Z,89.01
2022-12-13T21:00:41.637Z,89.24
2022-12-13T21:03:12.921Z,88.59
2022-12-13T21:05:46.438Z,88.51
2022-12-13T21:08:37.221Z,88.72
2022-12-13T21:11:26.916Z,89.16
2022-12-13T21:14:18.544Z,88.48
2022-12-13T21:17:00.039Z,89.00
2022-12-13T21:19:39.794Z,88.99
2022-12-13T21:22:12.690Z,88.99
2022-12-13T21:24:43.957Z,88.79
2022-12-13T21:27:15.212Z,88.34
2022-12-13T21:29:46.496Z,88.50
2022-12-13T21:32:17.809Z,88.59
2022-12-13T21:34:49.064Z,89.02
2022-12-13T21:37:20.320Z,88.26
2022-12-13T21:39:51.651Z,88.64
2022-12-13T21:42:22.893Z,88.59
2022-12-13T21:44:58.896Z,88.58
2022-12-13T21:47:33.188Z,88.57
2022-12-13T21:50:04.806Z,88.78
2022-12-13T21:52:36.122Z,88.52
2022-12-13T21:55:37.914Z,88.81
2022-12-13T21:58:17.940Z,88.51
2022-12-13T22:00:49.279Z,88.72
2022-12-13T22:03:20.554Z,89.05
2022-12-13T22:05:51.890Z,89.04
2022-12-13T22:08:23.154Z,88.57
2022-12-13T22:11:17.754Z,88.62
2022-12-13T22:13:52.255Z,88.42
2022-12-13T22:16:23.571Z,88.50
2022-12-13T22:18:55.479Z,88.91
2022-12-13T22:21:26.957Z,88.51
2022-12-13T22:23:58.302Z,88.70
2022-12-13T22:26:29.567Z,88.37
2022-12-13T22:29:00.837Z,88.30
2022-12-13T22:31:33.511Z,88.69
2022-12-13T22:34:04.828Z,88.83
2022-12-13T22:36:36.172Z,88.52
2022-12-13T22:39:07.704Z,89.05
2022-12-13T22:41:38.967Z,88.73
2022-12-13T22:44:14.027Z,88.45
2022-12-13T22:46:45.352Z,88.47
2022-12-13T22:49:16.761Z,88.37
2022-12-13T22:51:48.245Z,88.41
2022-12-13T22:54:19.525Z,88.23
2022-12-13T22:56:51.670Z,88.36
2022-12-13T22:59:22.917Z,88.49
2022-12-13T23:02:02.111Z,88.33
2022-12-13T23:04:34.108Z,88.86
2022-12-13T23:07:05.877Z,88.35
2022-12-13T23:09:37.209Z,88.23
2022-12-13T23:12:29.008Z,88.00
2022-12-13T23:15:00.239Z,88.34
2022-12-13T23:17:31.601Z,88.31
2022-12-13T23:20:04.349Z,88.23
2022-12-13T23:22:35.676Z,88.18
2022-12-13T23:25:07.352Z,88.08
2022-12-13T23:27:38.616Z,88.10
2022-12-13T23:30:10.668Z,88.16
2022-12-13T23:32:42.219Z,88.42
2022-12-13T23:35:13.490Z,88.72
2022-12-13T23:37:44.774Z,88.24
2022-12-13T23:40:19.813Z,88.75
2022-12-13T23:42:51.097Z,88.58
2022-12-13T23:45:23.506Z,88.29
2022-12-13T23:47:54.784Z,88.37
2022-12-13T23:50:26.171Z,88.32
2022-12-13T23:52:57.451Z,88.99
2022-12-13T23:55:28.693Z,88.71
2022-12-13T23:57:59.945Z,88.34
